Etusivu
METAR-TAF:

METAR-TAF

Lentoasemat :

Vilnan lentoasema

Vilna, Liettua

Leveyspiiri: 54-38N, Pituuspiiri: 025-06E, korkeus merenpinnasta: 162 m

Tämänhetkinen sää

Tämä raportti tehtiin 30 minuuttia sitten, kello 08.50 UTC
Tuuli 14 kn etelästä/kaakosta
Lämpötila 16°C
Kosteus 31%
Ilmanpaine 1028 hPa
Näkyvyys 10 km tai enemmän
ei pilviä alle 1500 m:ssä eikä cumulonimbus-pilviä

METAR: EYVI 220850Z 15014KT CAVOK 16/M01 Q1028 NOSIG

Aika: 12:20 (09:20 UTC)

Sääennuste

Tämä raportti tehtiin 4 tuntia ja 13 minuuttia sitten, kello 05.07 UTC
Ennuste voimassa 22. päivästä klo 06 UTC - 23. päivään klo 06 UTC
Tuuli 5 kn eri suunnista
Näkyvyys: 9000 m
Ajoittain
22. päivästä klo 09 UTC - 22. päivään klo 16 UTC
Tuuli 15 kn etelästä/kaakosta
Hajonneita pilviä 4000 ft:n korkeudessa

TAF: EYVI 220507Z 2206/2306 VRB05KT 9000 NSC TEMPO 2209/2216 15015KT BKN040

Säähavainnot ja -ennusteet yli 4000 lentoasemalta (METAR- ja TAF-raportit).

Käytössä olevat sääasemat on merkitty karttaan keltaisilla ja punaisilla pisteillä.

Aseta hiiri pisteen päälle nähdäksesi sääaseman nimen.

Klikkaa sitten nähdäksesi säähavainnot ja -ennusteet.

Kartan vaihtaminen: klikkaa mustalla rastilla varustettuja vihreitä pisteitä, niin voit zoomata sisään; viivalla varustettua vihreää pistettä, niin voit zoomata ulos tai vihreitä nuolia, niin pääset viereisille kartoille.


METAR-TAF: